Time;durP1;ratioP1;P1;durP2;ratioP2;P2;SDS_P1;SDS_P2;PMS_P1;PMS_P2;Temp;Humidity;BMP_temperature;BMP_pressure;BME280_temperature;BME280_humidity;BME280_pressure;Samples;Min_cycle;Max_cycle;Signal;HPM_P1;HPM_P2
2023/06/26 00:01:15;;;;;;;9.03;8.50;;;24.50;99.90;;;;;;4946015;28;20461;-76
2023/06/26 00:03:40;;;;;;;9.10;8.60;;;24.50;99.90;;;;;;4943356;28;20199;-74
2023/06/26 00:06:06;;;;;;;9.00;8.40;;;24.50;99.90;;;;;;4947527;29;20241;-76
2023/06/26 00:08:31;;;;;;;9.07;8.47;;;24.40;99.90;;;;;;5017751;23;21128;-91
2023/06/26 00:10:59;;;;;;;8.73;7.93;;;24.40;99.90;;;;;;5021482;28;20192;-92
2023/06/26 00:13:25;;;;;;;8.43;7.80;;;24.40;99.90;;;;;;5027723;28;20443;-92
2023/06/26 00:15:51;;;;;;;9.20;8.40;;;24.50;99.90;;;;;;5029157;28;20199;-91
2023/06/26 00:18:21;;;;;;;8.20;7.70;;;24.40;99.90;;;;;;5028190;28;20271;-94
2023/06/26 00:20:48;;;;;;;9.57;8.63;;;24.40;99.90;;;;;;5040944;28;20466;-93
2023/06/26 00:23:16;;;;;;;9.63;9.00;;;24.40;99.90;;;;;;5016700;28;20423;-92
2023/06/26 00:25:42;;;;;;;8.63;8.13;;;24.40;99.90;;;;;;5036405;28;20454;-93
2023/06/26 00:28:08;;;;;;;12.53;8.43;;;24.40;99.90;;;;;;5034357;28;20427;-93
2023/06/26 00:30:34;;;;;;;9.07;8.50;;;24.40;99.90;;;;;;5036206;28;20560;-94
2023/06/26 00:33:00;;;;;;;9.60;9.10;;;24.40;99.90;;;;;;5033531;28;20448;-93
2023/06/26 00:35:26;;;;;;;8.90;8.30;;;24.40;99.90;;;;;;5036636;28;20177;-93
2023/06/26 00:37:51;;;;;;;7.53;7.23;;;24.40;99.90;;;;;;5027005;28;20468;-94
2023/06/26 00:40:17;;;;;;;8.90;8.50;;;24.40;99.90;;;;;;5032808;28;20177;-92
2023/06/26 00:42:43;;;;;;;8.77;8.27;;;24.40;99.90;;;;;;5032836;28;20172;-94
2023/06/26 00:45:08;;;;;;;8.90;8.30;;;24.30;99.90;;;;;;5030826;28;20284;-94
2023/06/26 00:47:34;;;;;;;8.97;8.50;;;24.20;99.90;;;;;;5026665;28;20184;-93
2023/06/26 00:50:01;;;;;;;8.37;7.87;;;24.20;99.90;;;;;;5026920;28;20180;-94
2023/06/26 00:52:27;;;;;;;8.53;8.13;;;24.20;99.90;;;;;;5022322;28;20215;-94
2023/06/26 00:54:53;;;;;;;8.30;7.90;;;24.20;99.90;;;;;;5022904;28;20451;-90
2023/06/26 00:57:19;;;;;;;8.73;8.33;;;24.00;99.90;;;;;;5011400;28;20452;-93
2023/06/26 00:59:44;;;;;;;8.77;8.37;;;23.90;99.90;;;;;;5009049;28;20191;-94
2023/06/26 01:02:10;;;;;;;9.40;8.70;;;24.00;99.90;;;;;;5008029;28;20251;-93
2023/06/26 01:04:36;;;;;;;8.17;7.77;;;23.90;99.90;;;;;;5008924;28;20211;-94
2023/06/26 01:07:04;;;;;;;9.83;9.13;;;23.90;99.90;;;;;;5010938;28;20192;-94
2023/06/26 01:09:31;;;;;;;8.97;8.57;;;23.80;99.90;;;;;;5003048;28;20464;-93
2023/06/26 01:11:56;;;;;;;8.93;8.53;;;23.80;99.90;;;;;;5007148;28;20467;-93
2023/06/26 01:14:26;;;;;;;8.97;8.47;;;23.70;99.90;;;;;;5007951;28;20525;-93
2023/06/26 01:16:52;;;;;;;10.77;9.80;;;23.60;99.90;;;;;;5022589;28;20204;-94
2023/06/26 01:19:28;;;;;;;9.17;8.73;;;23.60;99.90;;;;;;5010454;28;20439;-94
2023/06/26 01:22:23;;;;;;;9.43;8.93;;;23.50;99.90;;;;;;5012830;28;20196;-92
2023/06/26 01:25:20;;;;;;;8.30;7.90;;;23.40;99.90;;;;;;5023624;28;20428;-94
2023/06/26 01:27:48;;;;;;;9.53;8.93;;;23.40;99.90;;;;;;5015919;28;20847;-93
2023/06/26 01:30:16;;;;;;;9.00;8.53;;;23.50;99.90;;;;;;5019294;28;20471;-94
2023/06/26 01:32:46;;;;;;;10.00;9.30;;;23.40;99.90;;;;;;5026065;28;20434;-94
2023/06/26 01:35:12;;;;;;;9.30;8.87;;;23.40;99.90;;;;;;5029270;28;20497;-95
2023/06/26 01:37:39;;;;;;;10.40;9.90;;;23.30;99.90;;;;;;5016722;28;20436;-91
2023/06/26 01:40:05;;;;;;;10.73;9.97;;;23.30;99.90;;;;;;5017163;28;20520;-93
2023/06/26 01:42:36;;;;;;;10.27;9.60;;;23.20;99.90;;;;;;5029171;28;20482;-92
2023/06/26 01:45:12;;;;;;;9.60;9.10;;;23.20;99.90;;;;;;5024231;28;20543;-92
2023/06/26 01:47:43;;;;;;;10.10;9.60;;;23.10;99.90;;;;;;5021840;28;20487;-93
2023/06/26 01:50:21;;;;;;;9.87;9.27;;;23.10;99.90;;;;;;5021494;28;21011;-92
2023/06/26 01:53:06;;;;;;;10.03;9.47;;;22.90;99.90;;;;;;5030487;28;20942;-93
2023/06/26 01:55:46;;;;;;;9.73;9.30;;;22.80;99.90;;;;;;5010663;28;20522;-94
2023/06/26 01:58:13;;;;;;;10.27;9.77;;;22.80;99.90;;;;;;5011254;28;20434;-94
2023/06/26 02:00:40;;;;;;;10.40;9.60;;;22.80;99.90;;;;;;5008242;28;20432;-93
2023/06/26 02:03:06;;;;;;;11.30;10.50;;;22.70;99.90;;;;;;5012541;28;20493;-93
2023/06/26 02:05:32;;;;;;;10.37;9.50;;;22.70;99.90;;;;;;5003147;28;20459;-94
2023/06/26 02:08:01;;;;;;;10.17;9.67;;;22.70;99.90;;;;;;5010595;28;20490;-94
2023/06/26 02:10:33;;;;;;;10.23;9.53;;;22.60;99.90;;;;;;4997941;28;20471;-94
2023/06/26 02:13:00;;;;;;;9.90;9.43;;;22.60;99.90;;;;;;5006365;28;20450;-94
2023/06/26 02:15:26;;;;;;;10.20;9.70;;;22.60;99.90;;;;;;5002563;28;20503;-94
2023/06/26 02:17:52;;;;;;;10.93;10.17;;;22.50;99.90;;;;;;5006515;28;20415;-93
2023/06/26 02:20:17;;;;;;;10.13;9.53;;;22.50;99.90;;;;;;5006546;28;20196;-93
2023/06/26 02:22:45;;;;;;;9.97;9.47;;;22.50;99.90;;;;;;5002371;28;20255;-93
2023/06/26 02:25:12;;;;;;;11.40;10.60;;;22.50;99.90;;;;;;5004563;28;20192;-94
2023/06/26 02:27:40;;;;;;;10.27;9.77;;;22.50;99.90;;;;;;5013902;28;20435;-92
2023/06/26 02:30:07;;;;;;;9.87;9.27;;;22.40;99.90;;;;;;5003944;28;20458;-93
2023/06/26 02:32:33;;;;;;;10.50;9.67;;;22.40;99.90;;;;;;4998846;28;20436;-93
2023/06/26 02:34:58;;;;;;;10.30;9.60;;;22.40;99.90;;;;;;5004258;28;20485;-93
2023/06/26 02:37:24;;;;;;;9.00;8.50;;;22.40;99.90;;;;;;5007220;28;20272;-93
2023/06/26 02:39:50;;;;;;;11.20;10.50;;;22.40;99.90;;;;;;5007004;28;20649;-93
2023/06/26 02:42:15;;;;;;;10.33;9.67;;;22.40;99.90;;;;;;5012813;28;20192;-93
2023/06/26 02:44:41;;;;;;;9.43;8.93;;;22.50;99.90;;;;;;5010306;28;20188;-93
2023/06/26 02:47:07;;;;;;;10.20;9.40;;;22.50;99.90;;;;;;5013238;28;20550;-93
2023/06/26 02:49:33;;;;;;;9.57;9.03;;;22.60;99.90;;;;;;5017388;28;20185;-94
2023/06/26 02:51:59;;;;;;;9.80;9.30;;;22.60;99.90;;;;;;5026270;28;20299;-94
2023/06/26 02:54:26;;;;;;;9.50;8.77;;;22.60;99.90;;;;;;5022896;28;20463;-92
2023/06/26 02:56:53;;;;;;;9.33;8.63;;;22.50;99.90;;;;;;5025320;28;20551;-91
2023/06/26 02:59:20;;;;;;;9.77;9.27;;;22.50;99.90;;;;;;5015789;28;20436;-92
2023/06/26 03:01:46;;;;;;;10.57;9.23;;;22.60;99.90;;;;;;5011623;28;20522;-93
2023/06/26 03:04:12;;;;;;;9.23;8.67;;;22.70;99.90;;;;;;5013930;28;20463;-92
2023/06/26 03:06:38;;;;;;;8.77;8.30;;;22.70;99.90;;;;;;5001607;28;20185;-93
2023/06/26 03:09:19;;;;;;;9.40;8.90;;;22.80;99.90;;;;;;5003316;28;20466;-93
2023/06/26 03:11:55;;;;;;;8.60;8.10;;;22.80;99.90;;;;;;5011658;28;20470;-94
2023/06/26 03:14:22;;;;;;;8.33;7.87;;;22.80;99.90;;;;;;5016855;28;20439;-92
2023/06/26 03:16:51;;;;;;;8.50;8.03;;;22.80;99.90;;;;;;5026202;28;20464;-92
2023/06/26 03:19:16;;;;;;;9.30;8.60;;;22.80;99.90;;;;;;5031636;28;20466;-93
2023/06/26 03:21:42;;;;;;;7.87;7.57;;;22.90;99.90;;;;;;5001850;28;20801;-94
2023/06/26 03:24:07;;;;;;;9.13;8.57;;;23.00;99.90;;;;;;5018159;28;20714;-92
2023/06/26 03:26:42;;;;;;;8.83;8.33;;;23.00;99.90;;;;;;5015293;28;20176;-93
2023/06/26 03:29:09;;;;;;;8.30;7.80;;;23.00;99.90;;;;;;5003551;28;20188;-93
2023/06/26 03:31:35;;;;;;;9.47;8.30;;;23.10;99.90;;;;;;5007942;28;20521;-93
2023/06/26 03:34:05;;;;;;;9.10;8.60;;;23.10;99.90;;;;;;5013232;28;20428;-94
2023/06/26 03:36:30;;;;;;;9.60;8.80;;;23.10;99.90;;;;;;5015384;28;20520;-93
2023/06/26 03:38:57;;;;;;;9.63;9.13;;;23.20;99.90;;;;;;5007493;28;21178;-92
2023/06/26 03:41:24;;;;;;;8.20;7.70;;;23.20;99.90;;;;;;5008173;28;20271;-92
2023/06/26 03:43:49;;;;;;;9.30;8.80;;;23.20;99.90;;;;;;5006409;28;20589;-93
2023/06/26 03:46:18;;;;;;;9.83;9.13;;;23.10;99.90;;;;;;5010337;28;20519;-93
2023/06/26 03:48:49;;;;;;;8.23;7.83;;;23.10;99.90;;;;;;5013347;28;21381;-93
2023/06/26 03:51:15;;;;;;;9.30;8.60;;;23.00;99.90;;;;;;5034472;28;20591;-92
2023/06/26 03:53:41;;;;;;;8.83;8.30;;;23.10;99.90;;;;;;5023053;28;20440;-94
2023/06/26 03:56:07;;;;;;;8.50;8.10;;;23.20;99.90;;;;;;5026051;28;20495;-92
2023/06/26 03:58:33;;;;;;;8.63;8.13;;;23.20;99.90;;;;;;5029720;28;20197;-94
2023/06/26 04:00:59;;;;;;;9.23;8.60;;;23.10;99.90;;;;;;5010554;28;20204;-95
2023/06/26 04:03:25;;;;;;;8.93;8.23;;;23.20;99.90;;;;;;5008379;28;20444;-93
2023/06/26 04:05:51;;;;;;;10.10;9.53;;;23.10;99.90;;;;;;4997539;28;20444;-93
2023/06/26 04:08:21;;;;;;;7.93;7.37;;;23.10;99.90;;;;;;5011763;28;20836;-93
2023/06/26 04:10:51;;;;;;;8.60;8.17;;;23.10;99.90;;;;;;5007127;28;20216;-92
2023/06/26 04:13:17;;;;;;;9.83;9.23;;;23.10;99.90;;;;;;5007843;28;20431;-93
2023/06/26 04:15:42;;;;;;;9.43;8.93;;;23.10;99.90;;;;;;5008869;28;20428;-92
2023/06/26 04:18:12;;;;;;;10.07;9.37;;;23.10;99.90;;;;;;5009436;28;20210;-94
2023/06/26 04:21:14;;;;;;;8.90;8.30;;;23.10;99.90;;;;;;5025608;28;20192;-95
2023/06/26 04:23:47;;;;;;;10.00;9.33;;;23.10;99.90;;;;;;5015582;28;20423;-95
2023/06/26 04:26:14;;;;;;;9.40;8.90;;;23.20;99.90;;;;;;5016497;28;20438;-92
2023/06/26 04:29:03;;;;;;;8.93;8.33;;;23.10;99.90;;;;;;5029491;28;20420;-94
2023/06/26 04:32:02;;;;;;;9.30;8.80;;;23.10;99.90;;;;;;5030837;28;20535;-95
2023/06/26 04:34:42;;;;;;;10.43;9.83;;;22.90;99.90;;;;;;5011725;28;20416;-95
2023/06/26 04:37:31;;;;;;;10.80;9.90;;;23.00;99.90;;;;;;5017349;28;20505;-96
2023/06/26 04:39:58;;;;;;;9.90;9.40;;;23.20;99.90;;;;;;5003559;28;20458;-95
2023/06/26 04:42:24;;;;;;;9.70;9.10;;;23.20;99.90;;;;;;5018493;28;20419;-95
2023/06/26 04:45:07;;;;;;;10.23;9.50;;;23.40;99.90;;;;;;5026973;28;20451;-96
2023/06/26 04:47:33;;;;;;;10.23;9.43;;;23.50;99.90;;;;;;5028822;28;20726;-92
2023/06/26 04:50:05;;;;;;;10.50;9.80;;;23.60;99.90;;;;;;5030182;28;20446;-95
2023/06/26 04:52:45;;;;;;;9.93;9.27;;;23.80;99.90;;;;;;5020624;28;20415;-95
2023/06/26 04:55:15;;;;;;;9.73;9.23;;;23.80;99.90;;;;;;5030865;28;20419;-96
2023/06/26 04:57:48;;;;;;;10.97;10.27;;;23.90;99.90;;;;;;5012420;28;20427;-87
2023/06/26 05:00:15;;;;;;;9.90;9.30;;;24.10;99.90;;;;;;5012394;28;20417;-95
2023/06/26 05:03:35;;;;;;;10.00;9.50;;;24.10;99.90;;;;;;5042810;28;20424;-93
2023/06/26 05:06:09;;;;;;;9.70;9.13;;;24.30;99.90;;;;;;5029731;28;20448;-94
2023/06/26 05:08:44;;;;;;;10.07;9.27;;;24.50;99.90;;;;;;5028599;28;20415;-96
2023/06/26 05:11:29;;;;;;;10.43;9.73;;;24.50;99.90;;;;;;5004417;23;20547;-76
2023/06/26 05:13:55;;;;;;;8.60;8.10;;;24.40;99.90;;;;;;4999986;28;20463;-77
2023/06/26 05:16:20;;;;;;;9.40;8.90;;;24.50;99.90;;;;;;4994943;28;20196;-76
2023/06/26 05:18:46;;;;;;;9.07;8.57;;;24.50;99.90;;;;;;4983828;28;20195;-75
2023/06/26 05:21:11;;;;;;;9.20;8.70;;;24.30;99.90;;;;;;5003424;28;20184;-76
2023/06/26 05:23:37;;;;;;;8.43;7.93;;;24.30;99.90;;;;;;4997951;28;20261;-77
2023/06/26 05:26:03;;;;;;;8.30;7.77;;;24.20;99.90;;;;;;5003233;28;20250;-76
2023/06/26 05:28:33;;;;;;;13.80;8.80;;;24.40;99.90;;;;;;4998804;28;20197;-77
2023/06/26 05:30:59;;;;;;;8.60;8.20;;;24.70;99.90;;;;;;4997004;28;20482;-77
2023/06/26 05:33:26;;;;;;;9.30;8.70;;;25.00;99.90;;;;;;4998644;28;20447;-77
2023/06/26 05:35:53;;;;;;;9.73;9.13;;;25.10;99.90;;;;;;4995886;28;20654;-77
2023/06/26 05:38:19;;;;;;;8.77;8.10;;;25.10;99.90;;;;;;5002147;28;20948;-75
2023/06/26 05:40:47;;;;;;;8.80;7.27;;;25.30;99.90;;;;;;4998309;28;20439;-76
2023/06/26 05:43:13;;;;;;;8.37;7.67;;;24.80;99.90;;;;;;4997495;28;20945;-75
2023/06/26 05:45:40;;;;;;;8.53;7.83;;;24.40;99.90;;;;;;5003696;28;20832;-76
2023/06/26 05:48:06;;;;;;;8.60;8.10;;;24.20;99.90;;;;;;4999701;28;20533;-75
2023/06/26 05:50:31;;;;;;;9.03;8.43;;;24.00;99.90;;;;;;5001819;28;20747;-76
2023/06/26 05:52:57;;;;;;;9.23;8.27;;;23.70;99.90;;;;;;4999625;28;20195;-76
2023/06/26 05:55:26;;;;;;;8.20;7.60;;;23.40;99.90;;;;;;5003081;28;20451;-76
2023/06/26 05:57:53;;;;;;;7.87;7.30;;;23.30;99.90;;;;;;4996717;28;20973;-76
2023/06/26 06:00:19;;;;;;;8.13;6.93;;;23.60;99.90;;;;;;5006631;28;20522;-76
2023/06/26 06:02:45;;;;;;;6.47;6.10;;;24.20;99.90;;;;;;5002173;28;21172;-76
2023/06/26 06:05:11;;;;;;;7.30;6.90;;;24.60;99.90;;;;;;5003793;28;21031;-75
2023/06/26 06:07:36;;;;;;;6.27;6.00;;;25.00;99.90;;;;;;5007000;28;20416;-76
2023/06/26 06:10:03;;;;;;;7.50;6.63;;;25.40;99.90;;;;;;5008017;28;20683;-75
2023/06/26 06:12:29;;;;;;;13.90;6.60;;;25.50;99.90;;;;;;5006853;28;20198;-75
2023/06/26 06:14:56;;;;;;;7.17;6.50;;;25.80;99.70;;;;;;5003841;28;20435;-75
2023/06/26 06:17:21;;;;;;;7.57;6.60;;;25.50;99.80;;;;;;5006742;28;20431;-76
2023/06/26 06:19:47;;;;;;;6.33;6.03;;;25.70;99.10;;;;;;5003046;28;20449;-76
2023/06/26 06:22:13;;;;;;;7.50;6.90;;;25.80;99.20;;;;;;5003495;28;20845;-75
2023/06/26 06:24:39;;;;;;;7.90;6.70;;;25.90;98.40;;;;;;5002334;28;20296;-75
2023/06/26 06:27:04;;;;;;;6.83;6.40;;;26.00;99.90;;;;;;5002393;28;20529;-75
2023/06/26 06:29:30;;;;;;;7.40;6.77;;;26.10;99.90;;;;;;5005992;28;20560;-75
2023/06/26 06:31:56;;;;;;;7.30;6.73;;;26.10;99.90;;;;;;5002117;28;20207;-75
2023/06/26 06:34:22;;;;;;;13.07;11.47;;;25.60;99.90;;;;;;5002560;28;20216;-76
2023/06/26 06:36:49;;;;;;;8.20;7.37;;;24.90;99.90;;;;;;4987800;28;20474;-75
2023/06/26 06:39:15;;;;;;;7.80;7.10;;;24.60;99.90;;;;;;5002728;28;20869;-75
2023/06/26 06:41:41;;;;;;;9.70;8.90;;;24.60;99.90;;;;;;5006700;28;20579;-75
2023/06/26 06:44:06;;;;;;;7.10;6.60;;;24.30;99.90;;;;;;5002747;28;20275;-74
2023/06/26 06:46:32;;;;;;;7.40;6.90;;;24.00;99.90;;;;;;5006508;28;20689;-75
2023/06/26 06:48:57;;;;;;;9.70;6.90;;;23.90;99.90;;;;;;5002791;28;20547;-76
2023/06/26 06:51:23;;;;;;;8.47;7.70;;;24.20;99.90;;;;;;4988663;28;20525;-75
2023/06/26 06:53:48;;;;;;;6.50;6.00;;;24.80;99.90;;;;;;5002900;28;20197;-76
2023/06/26 06:56:14;;;;;;;6.23;5.77;;;25.40;99.90;;;;;;5005980;28;20191;-75
2023/06/26 06:58:42;;;;;;;6.40;5.90;;;25.80;99.90;;;;;;4987229;28;20192;-77
2023/06/26 07:01:09;;;;;;;8.13;7.30;;;26.30;98.20;;;;;;5005787;28;20227;-76
2023/06/26 07:03:34;;;;;;;6.60;6.20;;;26.60;97.80;;;;;;4985250;28;20427;-76
2023/06/26 07:06:00;;;;;;;7.87;7.40;;;27.10;96.50;;;;;;5006420;28;20927;-76
2023/06/26 07:08:26;;;;;;;7.37;6.97;;;27.30;95.30;;;;;;5002800;28;20200;-75
2023/06/26 07:10:52;;;;;;;7.60;6.47;;;27.30;94.50;;;;;;5005644;28;20521;-75
2023/06/26 07:13:17;;;;;;;7.30;6.90;;;27.00;95.00;;;;;;4988003;28;20193;-76
2023/06/26 07:15:43;;;;;;;8.80;7.60;;;27.10;94.50;;;;;;5005617;28;20549;-77
2023/06/26 07:18:09;;;;;;;8.07;7.23;;;26.60;94.80;;;;;;5001920;28;20639;-76
2023/06/26 07:20:34;;;;;;;8.20;6.90;;;26.60;94.90;;;;;;5004812;28;20873;-78
2023/06/26 07:23:00;;;;;;;9.03;6.83;;;26.40;95.40;;;;;;4982337;28;20220;-76
2023/06/26 07:25:25;;;;;;;9.33;8.83;;;26.60;94.80;;;;;;5005034;28;20217;-77
2023/06/26 07:27:51;;;;;;;9.07;8.13;;;27.00;94.70;;;;;;5001890;28;20200;-76
2023/06/26 07:30:17;;;;;;;7.50;7.00;;;27.00;94.70;;;;;;5002268;28;20196;-77
2023/06/26 07:32:45;;;;;;;8.07;7.30;;;27.40;93.50;;;;;;5001334;28;20188;-76
2023/06/26 07:35:11;;;;;;;11.53;8.27;;;27.50;93.30;;;;;;5005594;28;20807;-77
2023/06/26 07:37:36;;;;;;;9.47;7.17;;;27.20;93.60;;;;;;5001973;28;20434;-75
2023/06/26 07:40:02;;;;;;;9.63;6.70;;;27.30;94.30;;;;;;5005058;28;20547;-76
2023/06/26 07:42:28;;;;;;;9.10;7.30;;;27.90;93.20;;;;;;5001356;28;20235;-76
2023/06/26 07:44:53;;;;;;;7.20;6.70;;;27.90;92.30;;;;;;4987712;28;20439;-77
2023/06/26 07:47:19;;;;;;;8.30;7.43;;;27.80;92.70;;;;;;5002156;28;20199;-77
2023/06/26 07:49:45;;;;;;;8.07;7.40;;;28.60;91.20;;;;;;5005096;28;20188;-77
2023/06/26 07:52:10;;;;;;;8.60;7.73;;;29.30;88.30;;;;;;5000032;28;20201;-78
2023/06/26 07:54:36;;;;;;;7.23;6.83;;;29.20;84.50;;;;;;4999158;28;20188;-76
2023/06/26 07:57:06;;;;;;;8.50;7.53;;;29.10;85.40;;;;;;5005368;28;20431;-77
2023/06/26 07:59:32;;;;;;;6.83;6.43;;;28.80;87.30;;;;;;5001859;28;21159;-77
2023/06/26 08:01:59;;;;;;;7.13;6.47;;;29.40;83.30;;;;;;5000203;28;21161;-77
2023/06/26 08:04:26;;;;;;;7.87;7.10;;;29.20;81.90;;;;;;5004436;28;20431;-76
2023/06/26 08:06:53;;;;;;;8.97;8.17;;;28.40;85.70;;;;;;5001448;28;20443;-77
2023/06/26 08:09:21;;;;;;;6.87;6.37;;;29.00;85.20;;;;;;4983435;28;21019;-77
2023/06/26 08:11:47;;;;;;;7.67;6.93;;;29.70;81.80;;;;;;4998227;28;20522;-76
2023/06/26 08:14:13;;;;;;;8.90;8.20;;;30.00;79.80;;;;;;5005103;28;20573;-77
2023/06/26 08:16:43;;;;;;;8.77;8.00;;;30.20;77.90;;;;;;5002017;28;20427;-78
2023/06/26 08:19:09;;;;;;;8.80;7.80;;;29.90;78.60;;;;;;5006249;28;20793;-77
2023/06/26 08:21:35;;;;;;;11.47;8.40;;;29.20;81.10;;;;;;5000878;28;20467;-76
2023/06/26 08:24:00;;;;;;;8.87;8.07;;;28.50;83.80;;;;;;4996823;28;20613;-76
2023/06/26 08:26:26;;;;;;;9.10;8.20;;;27.50;88.10;;;;;;5004462;28;20239;-75
2023/06/26 08:28:51;;;;;;;11.40;10.20;;;27.40;90.50;;;;;;4985753;28;20414;-74
2023/06/26 08:31:17;;;;;;;11.63;10.13;;;26.90;91.10;;;;;;5004008;28;20246;-75
2023/06/26 08:33:43;;;;;;;10.13;9.37;;;27.00;92.20;;;;;;5000544;28;20223;-75
2023/06/26 08:36:09;;;;;;;11.37;8.80;;;27.30;91.50;;;;;;5005215;28;20588;-75
2023/06/26 08:38:41;;;;;;;12.77;10.53;;;27.30;91.50;;;;;;4983748;28;20435;-74
2023/06/26 08:41:10;;;;;;;10.50;9.10;;;27.20;92.10;;;;;;5003822;28;20960;-74
2023/06/26 08:43:36;;;;;;;11.00;9.90;;;27.30;91.70;;;;;;5000858;28;20450;-75
2023/06/26 08:46:02;;;;;;;9.20;7.97;;;27.00;92.40;;;;;;5004268;28;20428;-75
2023/06/26 08:48:31;;;;;;;10.33;7.50;;;27.00;92.00;;;;;;5000897;28;20239;-75
2023/06/26 08:50:57;;;;;;;7.07;6.37;;;26.70;92.60;;;;;;5004458;28;20434;-75
2023/06/26 08:53:53;;;;;;;7.40;6.00;;;26.80;92.50;;;;;;4993675;28;20507;-74
2023/06/26 08:56:21;;;;;;;6.60;5.90;;;27.40;89.90;;;;;;5003446;28;20458;-73
2023/06/26 08:58:48;;;;;;;8.70;6.07;;;27.20;90.30;;;;;;5000928;28;20440;-75
2023/06/26 09:01:13;;;;;;;9.70;6.53;;;27.30;90.50;;;;;;5004691;28;20463;-78
2023/06/26 09:03:41;;;;;;;6.13;5.70;;;27.90;87.80;;;;;;5000542;28;20442;-75
2023/06/26 09:06:07;;;;;;;6.37;5.77;;;28.30;85.90;;;;;;5003015;28;20192;-75
2023/06/26 09:08:32;;;;;;;8.37;5.30;;;28.40;84.10;;;;;;4999724;28;20427;-77
2023/06/26 09:10:58;;;;;;;5.03;4.83;;;29.10;82.90;;;;;;5003940;28;20236;-75
2023/06/26 09:13:24;;;;;;;5.23;5.00;;;29.60;77.70;;;;;;4998195;28;20687;-74
2023/06/26 09:15:53;;;;;;;6.23;5.57;;;29.30;79.50;;;;;;5003129;28;20554;-74
2023/06/26 09:18:21;;;;;;;6.43;4.80;;;29.50;77.50;;;;;;4996374;28;20706;-75
2023/06/26 09:20:46;;;;;;;7.27;5.27;;;29.10;74.50;;;;;;5003001;28;20477;-75
2023/06/26 09:23:13;;;;;;;4.50;4.20;;;28.60;76.40;;;;;;4989639;28;20455;-75
2023/06/26 09:25:40;;;;;;;5.80;5.30;;;28.50;74.60;;;;;;5003198;28;20180;-74
2023/06/26 09:28:06;;;;;;;5.10;4.70;;;29.00;75.10;;;;;;5000598;28;20424;-75
2023/06/26 09:30:35;;;;;;;4.60;4.17;;;30.00;72.10;;;;;;5006139;28;20961;-75
2023/06/26 09:33:20;;;;;;;4.83;4.63;;;30.60;68.30;;;;;;4989053;28;20190;-76
2023/06/26 09:35:47;;;;;;;4.90;4.50;;;30.70;65.30;;;;;;4998893;28;20431;-76
2023/06/26 09:38:14;;;;;;;7.50;4.90;;;31.30;60.50;;;;;;5004158;28;20933;-75
2023/06/26 09:40:40;;;;;;;5.70;4.60;;;31.50;60.50;;;;;;4999284;28;20455;-75
2023/06/26 09:43:07;;;;;;;6.23;4.90;;;31.10;59.60;;;;;;5001645;28;20438;-75
2023/06/26 09:45:36;;;;;;;5.20;4.70;;;31.00;60.30;;;;;;4998882;28;20436;-77
2023/06/26 09:48:02;;;;;;;4.97;4.57;;;31.60;59.70;;;;;;4996165;28;20443;-76
2023/06/26 09:50:29;;;;;;;5.10;4.67;;;32.40;58.50;;;;;;5003661;28;20424;-75
2023/06/26 09:52:55;;;;;;;5.27;4.87;;;32.20;62.80;;;;;;5001349;28;20436;-76
2023/06/26 09:55:22;;;;;;;4.50;4.30;;;31.80;63.90;;;;;;4985242;28;20416;-77
2023/06/26 09:57:49;;;;;;;4.77;4.37;;;30.90;62.10;;;;;;4998477;28;20450;-76
2023/06/26 10:00:16;;;;;;;8.53;5.00;;;30.30;64.70;;;;;;5001880;28;20442;-75
2023/06/26 10:02:41;;;;;;;5.10;4.60;;;30.50;64.40;;;;;;5001577;28;20431;-76
2023/06/26 10:05:07;;;;;;;4.10;3.83;;;31.00;64.40;;;;;;5003130;28;20961;-75
2023/06/26 10:07:34;;;;;;;4.10;3.80;;;31.90;59.80;;;;;;4998628;28;20777;-77
2023/06/26 10:10:01;;;;;;;4.40;4.10;;;32.70;59.10;;;;;;5003230;28;20224;-76
2023/06/26 10:12:31;;;;;;;4.23;3.80;;;33.60;57.60;;;;;;4997312;28;20530;-76
2023/06/26 10:14:57;;;;;;;3.50;3.30;;;33.30;56.10;;;;;;5000720;28;20784;-75
2023/06/26 10:17:30;;;;;;;3.33;3.23;;;33.30;54.50;;;;;;4998870;28;20443;-75
2023/06/26 10:19:58;;;;;;;5.27;4.87;;;33.30;54.50;;;;;;5000053;28;20447;-78
2023/06/26 10:22:29;;;;;;;3.20;3.10;;;33.60;54.30;;;;;;4995707;28;21569;-75
2023/06/26 10:24:58;;;;;;;5.40;4.20;;;33.00;54.20;;;;;;5000541;28;20424;-75
2023/06/26 10:27:28;;;;;;;4.80;4.67;;;31.90;54.60;;;;;;4998093;28;20431;-76
2023/06/26 10:29:56;;;;;;;8.80;5.20;;;31.10;56.10;;;;;;4995398;28;20486;-76
2023/06/26 10:32:24;;;;;;;4.40;4.00;;;30.90;56.30;;;;;;5001783;28;20808;-77
2023/06/26 10:34:51;;;;;;;4.57;3.63;;;31.50;55.80;;;;;;4999832;28;20439;-76
2023/06/26 10:37:17;;;;;;;3.47;3.27;;;32.10;56.40;;;;;;5002060;28;20435;-76
2023/06/26 10:39:46;;;;;;;4.30;4.00;;;33.00;55.00;;;;;;4999264;28;20445;-76
2023/06/26 10:42:12;;;;;;;3.20;3.10;;;33.70;54.30;;;;;;4999267;28;20309;-77
2023/06/26 10:44:45;;;;;;;4.03;3.63;;;34.70;52.30;;;;;;5002580;28;20427;-76
2023/06/26 10:47:11;;;;;;;4.03;3.73;;;33.30;52.30;;;;;;5002705;28;20192;-75
2023/06/26 10:49:42;;;;;;;5.00;3.97;;;32.70;52.00;;;;;;4986802;28;20648;-75
2023/06/26 10:52:07;;;;;;;3.60;3.40;;;31.80;53.00;;;;;;5000589;28;20605;-76
2023/06/26 10:54:33;;;;;;;3.43;3.33;;;31.60;53.30;;;;;;5004185;28;20938;-77
2023/06/26 10:57:01;;;;;;;4.00;3.70;;;31.40;53.70;;;;;;4985333;28;20204;-77
2023/06/26 10:59:29;;;;;;;4.30;4.00;;;30.40;54.80;;;;;;5005952;28;20451;-76
2023/06/26 11:01:55;;;;;;;3.13;3.03;;;30.20;55.70;;;;;;5001290;28;20495;-76
2023/06/26 11:04:46;;;;;;;3.20;3.10;;;31.30;55.30;;;;;;5005501;28;20673;-76
2023/06/26 11:07:23;;;;;;;3.83;3.37;;;32.10;53.20;;;;;;5002005;28;20549;-75
2023/06/26 11:10:00;;;;;;;2.97;2.83;;;32.80;52.80;;;;;;5004163;28;20482;-76
2023/06/26 11:12:37;;;;;;;3.73;3.50;;;32.80;53.30;;;;;;5002309;28;20446;-75
2023/06/26 11:15:12;;;;;;;3.10;3.10;;;32.20;53.70;;;;;;4983922;28;20539;-77
2023/06/26 11:17:38;;;;;;;4.53;4.23;;;31.30;53.80;;;;;;5002121;28;20719;-75
2023/06/26 11:20:07;;;;;;;5.43;4.37;;;31.10;54.80;;;;;;5005894;28;20423;-77
2023/06/26 11:22:35;;;;;;;3.47;3.37;;;31.70;54.40;;;;;;4980621;28;20470;-75
2023/06/26 11:25:02;;;;;;;5.10;2.73;;;31.10;53.90;;;;;;5005665;28;20833;-75
2023/06/26 11:27:38;;;;;;;2.80;2.60;;;29.40;54.00;;;;;;5006205;28;20721;-76
2023/06/26 11:30:07;;;;;;;5.67;3.07;;;29.30;54.00;;;;;;4983940;28;21104;-77
2023/06/26 11:32:33;;;;;;;3.00;2.80;;;29.90;53.20;;;;;;5005265;28;20430;-77
2023/06/26 11:34:59;;;;;;;2.67;2.40;;;30.20;53.40;;;;;;4986232;28;20448;-76
2023/06/26 11:37:25;;;;;;;2.70;2.60;;;31.30;53.30;;;;;;4990092;28;20437;-75
2023/06/26 11:39:51;;;;;;;2.30;2.10;;;32.10;51.60;;;;;;5000702;28;20444;-75
2023/06/26 11:42:18;;;;;;;2.13;2.13;;;32.00;51.20;;;;;;5004045;28;20467;-76
2023/06/26 11:44:44;;;;;;;4.47;2.70;;;32.70;50.50;;;;;;5001814;28;20208;-76
2023/06/26 11:47:18;;;;;;;2.33;2.23;;;32.90;49.40;;;;;;5005477;28;20490;-76
2023/06/26 11:49:48;;;;;;;2.60;2.50;;;32.00;49.10;;;;;;5001653;28;20275;-75
2023/06/26 11:52:14;;;;;;;2.03;2.03;;;31.50;50.20;;;;;;5004983;28;20782;-76
2023/06/26 11:54:41;;;;;;;2.37;2.33;;;31.40;48.90;;;;;;5001392;28;21057;-76
2023/06/26 11:57:07;;;;;;;2.30;2.20;;;32.00;48.80;;;;;;5004075;28;20835;-76
2023/06/26 11:59:40;;;;;;;1.67;1.67;;;32.20;48.70;;;;;;5001624;28;20455;-76
2023/06/26 12:02:10;;;;;;;2.63;2.43;;;31.50;49.40;;;;;;5000552;28;20219;-76
2023/06/26 12:04:41;;;;;;;2.17;1.80;;;31.60;49.20;;;;;;4997012;28;20450;-76
2023/06/26 12:07:09;;;;;;;1.93;1.83;;;31.30;48.50;;;;;;5005428;28;20954;-75
2023/06/26 12:09:43;;;;;;;2.50;2.50;;;31.30;47.30;;;;;;5001330;28;20474;-75
2023/06/26 12:12:10;;;;;;;2.37;2.37;;;31.80;47.50;;;;;;5004728;28;20447;-76
2023/06/26 12:14:37;;;;;;;1.57;1.47;;;31.80;47.70;;;;;;5001442;28;20495;-76
2023/06/26 12:17:10;;;;;;;3.10;2.00;;;31.90;47.80;;;;;;5004356;28;20436;-76
2023/06/26 12:19:43;;;;;;;2.07;1.93;;;30.80;48.00;;;;;;5000867;28;20454;-75
2023/06/26 12:22:09;;;;;;;1.83;1.73;;;29.80;48.60;;;;;;5001300;28;20529;-76
2023/06/26 12:24:39;;;;;;;1.63;1.63;;;29.30;49.30;;;;;;5000585;28;20432;-76
2023/06/26 12:27:12;;;;;;;3.10;2.80;;;29.30;49.20;;;;;;5004848;28;20483;-74
2023/06/26 12:29:40;;;;;;;1.60;1.60;;;29.80;49.20;;;;;;5003400;28;20443;-77
2023/06/26 12:32:10;;;;;;;2.33;2.23;;;30.60;48.70;;;;;;4987082;28;20440;-74
2023/06/26 12:34:40;;;;;;;2.13;2.03;;;31.10;47.80;;;;;;4993785;28;20435;-76
2023/06/26 12:37:09;;;;;;;2.70;1.73;;;31.30;46.50;;;;;;5004113;28;20427;-76
2023/06/26 12:39:49;;;;;;;1.37;1.37;;;30.80;46.10;;;;;;5001053;28;20428;-76
2023/06/26 12:42:20;;;;;;;1.47;1.40;;;31.30;46.10;;;;;;5002810;28;20796;-76
2023/06/26 12:44:46;;;;;;;1.40;1.40;;;31.50;45.80;;;;;;5000356;28;20954;-75
2023/06/26 12:47:15;;;;;;;3.03;1.73;;;30.80;45.10;;;;;;5000755;28;20440;-77
2023/06/26 12:49:51;;;;;;;1.30;1.30;;;30.60;45.40;;;;;;5002242;28;20967;-76
2023/06/26 12:52:18;;;;;;;1.53;1.43;;;31.00;45.80;;;;;;5003053;28;20501;-76